This is the latest recevied weather packets stored in our database for station/object WX2P-13. If no packets are shown the sender has not sent any weather packets the latest 1 day(s).
| Time | Temp. | Humidity | Pressure | Rain* | Wind** | Luminosity | Snow |
|---|---|---|---|---|---|---|---|
| 1778029715 | 21.67° C | 86% | 1015.5 hPa | 0 mm | - | 0 W/m² | - |
| 1778029413 | 21.67° C | 85% | 1016 hPa | 0 mm | - | 0 W/m² | - |
| 1778028806 | 22.22° C | 84% | 1015.6 hPa | 0 mm | - | 0 W/m² | - |
| 1778028502 | 22.22° C | 84% | 1015.9 hPa | 0 mm | - | 0 W/m² | - |
| 1778028200 | 22.78° C | 83% | 1015.8 hPa | 0 mm | - | 0 W/m² | - |
| 1778027896 | 22.78° C | 82% | 1015.9 hPa | 0 mm | - | 0 W/m² | - |
| 1778027592 | 22.78° C | 81% | 1015.8 hPa | 0 mm | - | 0 W/m² | - |
| 1778026681 | 23.89° C | 79% | 1015.3 hPa | 0 mm | - | 0 W/m² | - |
| 1778026075 | 24.44° C | 77% | 1015 hPa | 0 mm | - | 0 W/m² | - |
| 1778024864 | 25° C | 75% | 1015.1 hPa | 0 mm | - | 11 W/m² | - |
| 1778024258 | 25.56° C | 74% | 1015.1 hPa | 0 mm | - | 18 W/m² | - |
| 1778023653 | 25.56° C | 73% | 1015 hPa | 0 mm | - | 28 W/m² | - |
| 1778023047 | 25.56° C | 71% | 1014.9 hPa | 0 mm | - | 32 W/m² | - |
| 1778022746 | 26.11° C | 71% | 1014.9 hPa | 0 mm | - | 32 W/m² | - |
| 1778022140 | 26.11° C | 70% | 1015 hPa | 0 mm | - | 38 W/m² | - |
| 1778021229 | 26.67° C | 68% | 1015.1 hPa | 0 mm | - | 72 W/m² | - |
| 1778019410 | 27.78° C | 65% | 1015.1 hPa | 0 mm | - | 85 W/m² | - |
| 1778015776 | 28.89° C | 59% | 1015.2 hPa | 0 mm | - | 156 W/m² | - |
| 1778014262 | 28.89° C | 57% | 1014.8 hPa | 0 mm | - | 78 W/m² | - |
| 1778013656 | 28.89° C | 57% | 1014.8 hPa | 0 mm | - | 97 W/m² | - |
| 1778013050 | 29.44° C | 57% | 1015.1 hPa | 0 mm | - | 281 W/m² | - |
| 1778010927 | 28.89° C | 59% | 1015.2 hPa | 0 mm | - | 152 W/m² | - |
| 1778009412 | 29.44° C | 57% | 1015.4 hPa | 0 mm | - | 189 W/m² | - |
| 1778008807 | 29.44° C | 49% | 1015.5 hPa | 0 mm | - | 158 W/m² | - |
| 1778008203 | 28.89° C | 50% | 1015.7 hPa | 0 mm | - | 134 W/m² | - |
* Rain latest hour (hover to see other rain measurements)
** Current wind speed in m/s (hover to see current wind gust speed)